Dades meteomassalio
Diari Summary for Agost 17, 2017 Units:  Metric    English   Both
« Previous Day
Next Day »
Diari Semanal Mensual Anual Personalitzat
  Maxima: Minima: Mijana:
Temperatura: 36.7 °C 16.8 °C 27.4 °C
Rosada: 18.1 °C 5.3 °C 11.9 °C
Humitat: 63 % 19 % 42 %
Velocitat del vent: 25.9 km/h 0.0 km/h 4.6 km/h
Racha vent: 25.9 km/h - -
Vent:- - SE
Pressio: 1019.5 hPa 1014.4 hPa -
Pluja: 0.0 mm    
Historical Graphs
 
 
Tabular Data for Agost 17, 2017
Time Temperature Dew Point Pressure Wind Wind Speed Wind Gust Humidity Rainfall Rate (Hourly) solar Conditions
00:01 27.8 °C 14.4 °C 1017.8 hPa NW 12.9 km/h 12.9 km/h 44 % 0.0 mm 0.0 W/m2 CLR
00:06 27.8 °C 14.4 °C 1017.8 hPa NW 18.5 km/h 18.5 km/h 44 % 0.0 mm 0.0 W/m2 CLR
00:11 27.7 °C 14.3 °C 1017.8 hPa Calm     44 % 0.0 mm 0.0 W/m2 CLR
00:16 27.6 °C 14.3 °C 1018.2 hPa Calm     44 % 0.0 mm 0.0 W/m2 CLR
00:21 27.4 °C 14.4 °C 1018.2 hPa Calm     45 % 0.0 mm 0.0 W/m2 CLR
00:26 27.1 °C 14.2 °C 1018.2 hPa Calm     45 % 0.0 mm 0.0 W/m2 CLR
00:27 27.1 °C 14.2 °C 1018.2 hPa Calm     45 % 0.0 mm 0.0 W/m2 CLR
00:32 26.8 °C 14.2 °C 1018.2 hPa Calm     46 % 0.0 mm 0.0 W/m2 CLR
00:40 26.3 °C 14.4 °C 1018.2 hPa Calm     48 % 0.0 mm 0.0 W/m2 CLR
00:46 26.0 °C 14.1 °C 1018.5 hPa Calm     48 % 0.0 mm 0.0 W/m2 CLR
01:14 25.5 °C 14.0 °C 1018.5 hPa West 6.4 km/h   49 % 0.0 mm 0.0 W/m2 CLR
01:30 25.0 °C 14.4 °C 1018.5 hPa Calm     52 % 0.0 mm 0.0 W/m2 CLR
01:41 24.5 °C 15.2 °C 1018.5 hPa Calm     56 % 0.0 mm 0.0 W/m2 CLR
01:51 24.0 °C 14.4 °C 1018.5 hPa Calm     55 % 0.0 mm 0.0 W/m2 CLR
01:56 23.7 °C 14.1 °C 1018.5 hPa Calm     55 % 0.0 mm 0.0 W/m2 CLR
02:02 23.5 °C 13.4 °C 1018.5 hPa Calm     53 % 0.0 mm 0.0 W/m2 CLR
02:07 23.5 °C 13.1 °C 1018.5 hPa Calm     52 % 0.0 mm 0.0 W/m2 CLR
02:12 23.4 °C 13.9 °C 1018.5 hPa Calm     55 % 0.0 mm 0.0 W/m2 CLR
02:17 23.3 °C 14.1 °C 1018.5 hPa Calm     56 % 0.0 mm 0.0 W/m2 CLR
02:22 23.2 °C 14.2 °C 1018.5 hPa Calm     57 % 0.0 mm 0.0 W/m2 CLR
02:27 23.1 °C 14.1 °C 1018.5 hPa Calm     57 % 0.0 mm 0.0 W/m2 CLR
02:32 22.9 °C 13.4 °C 1018.5 hPa Calm     55 % 0.0 mm 0.0 W/m2 CLR
02:37 22.7 °C 13.8 °C 1018.5 hPa Calm     57 % 0.0 mm 0.0 W/m2 CLR
02:42 22.6 °C 13.7 °C 1018.5 hPa Calm     57 % 0.0 mm 0.0 W/m2 CLR
02:47 22.6 °C 13.3 °C 1018.5 hPa Calm     56 % 0.0 mm 0.0 W/m2 CLR
02:52 22.5 °C 13.3 °C 1018.5 hPa Calm     56 % 0.0 mm 0.0 W/m2 CLR
02:57 22.4 °C 12.7 °C 1018.5 hPa Calm     54 % 0.0 mm 0.0 W/m2 CLR
03:02 22.4 °C 13.2 °C 1018.5 hPa Calm     56 % 0.0 mm 0.0 W/m2 CLR
03:07 22.2 °C 13.3 °C 1018.5 hPa Calm     57 % 0.0 mm 0.0 W/m2 CLR
03:12 22.1 °C 13.4 °C 1018.5 hPa Calm     58 % 0.0 mm 0.0 W/m2 CLR
03:17 21.8 °C 13.7 °C 1018.5 hPa Calm     60 % 0.0 mm 0.0 W/m2 CLR
03:22 21.7 °C 13.1 °C 1018.5 hPa Calm     58 % 0.0 mm 0.0 W/m2 CLR
03:27 21.6 °C 12.2 °C 1018.5 hPa Calm     55 % 0.0 mm 0.0 W/m2 CLR
03:32 21.6 °C 11.9 °C 1018.5 hPa Calm     54 % 0.0 mm 0.0 W/m2 CLR
03:37 21.7 °C 11.1 °C 1018.5 hPa Calm     51 % 0.0 mm 0.0 W/m2 CLR
03:42 21.8 °C 12.3 °C 1018.5 hPa Calm     55 % 0.0 mm 0.0 W/m2 CLR
03:47 21.7 °C 12.2 °C 1018.5 hPa Calm     55 % 0.0 mm 0.0 W/m2 CLR
03:52 21.5 °C 11.8 °C 1018.5 hPa Calm     54 % 0.0 mm 0.0 W/m2 CLR
03:57 21.4 °C 11.1 °C 1018.5 hPa Calm     52 % 0.0 mm 0.0 W/m2 CLR
04:02 21.3 °C 10.1 °C 1018.5 hPa Calm     49 % 0.0 mm 0.0 W/m2 CLR
04:07 21.3 °C 10.2 °C 1018.8 hPa Calm     49 % 0.0 mm 0.0 W/m2 CLR
04:12 21.3 °C 11.9 °C 1018.5 hPa Calm     55 % 0.0 mm 0.0 W/m2 CLR
04:17 20.9 °C 11.6 °C 1018.5 hPa Calm     55 % 0.0 mm 0.0 W/m2 CLR
04:22 20.6 °C 11.2 °C 1018.8 hPa Calm     55 % 0.0 mm 0.0 W/m2 CLR
04:27 20.5 °C 11.4 °C 1018.8 hPa Calm     56 % 0.0 mm 0.0 W/m2 CLR
04:32 20.3 °C 11.3 °C 1018.8 hPa Calm     56 % 0.0 mm 0.0 W/m2 CLR
04:37 20.2 °C 11.4 °C 1018.8 hPa Calm     57 % 0.0 mm 0.0 W/m2 CLR
04:42 20.1 °C 11.3 °C 1018.8 hPa Calm     57 % 0.0 mm 0.0 W/m2 CLR
04:47 20.1 °C 11.3 °C 1018.8 hPa Calm     57 % 0.0 mm 0.0 W/m2 CLR
04:52 19.9 °C 11.4 °C 1018.8 hPa Calm     58 % 0.0 mm 0.0 W/m2 CLR
04:57 19.7 °C 11.2 °C 1018.8 hPa Calm     58 % 0.0 mm 0.0 W/m2 CLR
05:02 19.6 °C 11.1 °C 1018.8 hPa Calm     58 % 0.0 mm 0.0 W/m2 CLR
05:07 19.4 °C 10.7 °C 1018.8 hPa Calm     57 % 0.0 mm 0.0 W/m2 CLR
05:13 19.4 °C 10.7 °C 1018.8 hPa Calm     57 % 0.0 mm 0.0 W/m2 CLR
05:18 19.3 °C 10.6 °C 1018.8 hPa Calm     57 % 0.0 mm 0.0 W/m2 CLR
05:22 19.2 °C 10.2 °C 1018.8 hPa Calm     56 % 0.0 mm 0.0 W/m2 CLR
05:23 19.2 °C 10.2 °C 1018.8 hPa Calm     56 % 0.0 mm 0.0 W/m2 CLR
05:27 19.2 °C 9.9 °C 1018.8 hPa Calm     55 % 0.0 mm 0.0 W/m2 CLR
05:32 19.1 °C 10.1 °C 1018.8 hPa Calm     56 % 0.0 mm 0.0 W/m2 CLR
05:37 19.1 °C 10.3 °C 1018.8 hPa Calm     57 % 0.0 mm 0.0 W/m2 CLR
05:42 18.9 °C 9.9 °C 1018.8 hPa Calm     56 % 0.0 mm 0.0 W/m2 CLR
05:47 18.7 °C 10.0 °C 1018.8 hPa Calm     57 % 0.0 mm 0.0 W/m2 CLR
05:52 18.6 °C 9.9 °C 1018.8 hPa Calm     57 % 0.0 mm 0.0 W/m2 CLR
05:57 18.5 °C 9.8 °C 1018.8 hPa Calm     57 % 0.0 mm 0.0 W/m2 CLR
05:58 18.5 °C 9.8 °C 1018.8 hPa Calm     57 % 0.0 mm 0.0 W/m2 CLR
06:03 18.4 °C 9.8 °C 1018.8 hPa Calm     57 % 0.0 mm 0.0 W/m2 CLR
06:08 18.5 °C 9.8 °C 1018.8 hPa Calm     57 % 0.0 mm 0.0 W/m2 CLR
06:13 18.5 °C 9.8 °C 1018.8 hPa Calm     57 % 0.0 mm 0.0 W/m2 CLR
06:18 18.3 °C 9.7 °C 1018.8 hPa Calm     57 % 0.0 mm 0.0 W/m2 CLR
06:23 18.1 °C 9.7 °C 1018.8 hPa Calm     58 % 0.0 mm 0.0 W/m2 CLR
06:28 17.9 °C 9.8 °C 1019.2 hPa Calm     59 % 0.0 mm 0.0 W/m2 CLR
06:33 17.8 °C 10.2 °C 1019.2 hPa Calm     61 % 0.0 mm 0.0 W/m2 CLR
06:38 17.6 °C 9.7 °C 1019.2 hPa Calm     60 % 0.0 mm 0.0 W/m2 CLR
06:43 17.6 °C 9.7 °C 1019.2 hPa SW 5.6 km/h 6.0 km/h 60 % 0.0 mm 0.0 W/m2 CLR
06:48 17.6 °C 9.7 °C 1019.2 hPa Calm     60 % 0.0 mm 0.0 W/m2 CLR
06:53 17.5 °C 9.7 °C 1019.2 hPa Calm     60 % 0.0 mm 0.0 W/m2 CLR
06:58 17.3 °C 9.5 °C 1019.2 hPa Calm     60 % 0.0 mm 0.0 W/m2 CLR
07:03 17.2 °C 9.6 °C 1019.2 hPa Calm     61 % 0.0 mm 0.0 W/m2 OVC
07:08 17.0 °C 9.4 °C 1019.2 hPa Calm     61 % 0.0 mm 0.0 W/m2 OVC
07:13 16.9 °C 9.4 °C 1019.2 hPa Calm     61 % 0.0 mm 5.0 W/m2 OVC
07:18 16.9 °C 9.3 °C 1019.2 hPa Calm     61 % 0.0 mm 9.0 W/m2 BKN
07:23 16.9 °C 9.3 °C 1019.2 hPa Calm     61 % 0.0 mm 12.0 W/m2 BKN
07:28 16.9 °C 9.4 °C 1019.2 hPa Calm     61 % 0.0 mm 18.0 W/m2 BKN
07:33 16.9 °C 9.4 °C 1019.2 hPa Calm     61 % 0.0 mm 21.0 W/m2 BKN
07:38 16.9 °C 9.3 °C 1019.2 hPa Calm     61 % 0.0 mm 23.0 W/m2 BKN
07:43 16.8 °C 9.3 °C 1019.5 hPa SW 5.6 km/h 5.6 km/h 61 % 0.0 mm 28.0 W/m2 BKN
07:48 16.8 °C 9.3 °C 1019.2 hPa Calm     61 % 0.0 mm 33.0 W/m2 BKN
07:53 16.9 °C 9.3 °C 1019.5 hPa Calm     61 % 0.0 mm 39.0 W/m2 BKN
07:58 17.1 °C 9.5 °C 1019.5 hPa Calm     61 % 0.0 mm 54.0 W/m2 SCT
08:03 17.3 °C 9.4 °C 1019.2 hPa Calm     60 % 0.0 mm 58.0 W/m2 SCT
08:08 17.5 °C 9.7 °C 1019.2 hPa Calm     60 % 0.0 mm 74.0 W/m2 FEW
08:13 17.8 °C 9.7 °C 1019.5 hPa Calm     59 % 0.0 mm 93.0 W/m2 FEW
08:18 18.0 °C 9.9 °C 1019.5 hPa Calm     59 % 0.0 mm 111.0 W/m2 CLR
08:23 18.1 °C 9.7 °C 1019.5 hPa Calm     58 % 0.0 mm 125.0 W/m2 CLR
08:28 18.4 °C 10.0 °C 1019.5 hPa Calm     58 % 0.0 mm 137.0 W/m2 CLR
08:33 18.7 °C 10.0 °C 1019.5 hPa Calm     57 % 0.0 mm 156.0 W/m2 CLR
08:38 19.1 °C 10.3 °C 1019.5 hPa Calm     57 % 0.0 mm 178.0 W/m2 CLR
08:43 19.6 °C 10.3 °C 1019.5 hPa Calm     55 % 0.0 mm 193.0 W/m2 CLR
08:48 20.1 °C 10.5 °C 1019.5 hPa Calm     54 % 0.0 mm 211.0 W/m2 CLR
08:53 20.7 °C 10.5 °C 1019.5 hPa Calm     52 % 0.0 mm 227.0 W/m2 CLR
08:58 21.1 °C 11.4 °C 1019.5 hPa Calm     54 % 0.0 mm 241.0 W/m2 CLR
09:03 21.4 °C 12.2 °C 1019.5 hPa Calm     56 % 0.0 mm 255.0 W/m2 CLR
09:08 21.7 °C 12.2 °C 1019.5 hPa Calm     55 % 0.0 mm 258.0 W/m2 CLR
09:13 21.9 °C 12.7 °C 1019.5 hPa Calm     56 % 0.0 mm 287.0 W/m2 CLR
09:18 22.2 °C 12.4 °C 1019.5 hPa Calm     54 % 0.0 mm 283.0 W/m2 CLR
09:23 22.7 °C 12.3 °C 1019.5 hPa Calm     52 % 0.0 mm 97.0 W/m2 CLR
09:28 23.2 °C 12.5 °C 1019.5 hPa Calm     51 % 0.0 mm 338.0 W/m2 CLR
09:33 23.5 °C 12.2 °C 1019.2 hPa Calm     49 % 0.0 mm 353.0 W/m2 CLR
09:38 23.7 °C 12.3 °C 1019.5 hPa Calm     49 % 0.0 mm 367.0 W/m2 CLR
09:43 23.9 °C 11.9 °C 1019.5 hPa Calm     47 % 0.0 mm 383.0 W/m2 CLR
09:48 24.2 °C 11.5 °C 1019.5 hPa Calm     45 % 0.0 mm 403.0 W/m2 CLR
09:53 24.6 °C 10.4 °C 1019.2 hPa Calm     41 % 0.0 mm 417.0 W/m2 CLR
09:58 25.1 °C 11.3 °C 1019.5 hPa Calm     42 % 0.0 mm 431.0 W/m2 CLR
10:03 25.5 °C 11.3 °C 1019.5 hPa Calm     41 % 0.0 mm 446.0 W/m2 CLR
10:08 25.8 °C 10.8 °C 1019.5 hPa Calm     39 % 0.0 mm 462.0 W/m2 CLR
10:13 26.2 °C 7.7 °C 1019.5 hPa WNW 7.4 km/h 7.4 km/h 31 % 0.0 mm 480.0 W/m2 CLR
10:18 26.3 °C 6.9 °C 1019.5 hPa WNW 13.0 km/h 13.0 km/h 29 % 0.0 mm 492.0 W/m2 CLR
10:23 26.5 °C 6.5 °C 1019.2 hPa WNW 13.0 km/h 13.0 km/h 28 % 0.0 mm 506.0 W/m2 CLR
10:28 26.6 °C 6.6 °C 1019.5 hPa WNW 13.0 km/h 13.0 km/h 28 % 0.0 mm 524.0 W/m2 CLR
10:33 26.8 °C 6.8 °C 1019.5 hPa NW 11.1 km/h 11.1 km/h 28 % 0.0 mm 536.0 W/m2 CLR
10:38 26.8 °C 6.8 °C 1019.5 hPa NNW 7.4 km/h 7.4 km/h 28 % 0.0 mm 550.0 W/m2 CLR
10:39 26.8 °C 6.8 °C 1019.5 hPa NW 7.4 km/h 7.4 km/h 28 % 0.0 mm 550.0 W/m2 CLR
10:44 27.1 °C 7.0 °C 1019.5 hPa WNW 8.0 km/h 8.0 km/h 28 % 0.0 mm 566.0 W/m2 CLR
10:49 27.2 °C 7.1 °C 1019.5 hPa WNW 1.9 km/h 1.9 km/h 28 % 0.0 mm 577.0 W/m2 CLR
10:54 27.4 °C 6.7 °C 1019.2 hPa West 9.7 km/h 9.7 km/h 27 % 0.0 mm 592.0 W/m2 CLR
10:55 27.4 °C 6.2 °C 1019.2 hPa WSW 9.3 km/h 9.3 km/h 26 % 0.0 mm 598.0 W/m2 CLR
11:00 27.5 °C 6.8 °C 1019.2 hPa NW 7.4 km/h 7.4 km/h 27 % 0.0 mm 612.0 W/m2 CLR
11:05 27.7 °C 5.9 °C 1019.2 hPa WNW 7.4 km/h 7.4 km/h 25 % 0.0 mm 624.0 W/m2 CLR
11:10 27.8 °C 6.6 °C 1019.2 hPa West 9.7 km/h 9.7 km/h 26 % 0.0 mm 635.0 W/m2 CLR
11:15 28.2 °C 6.3 °C 1019.2 hPa SSE 1.9 km/h 1.9 km/h 25 % 0.0 mm 650.0 W/m2 CLR
11:20 28.6 °C 6.6 °C 1019.2 hPa NW 6.4 km/h 6.4 km/h 25 % 0.0 mm 661.0 W/m2 CLR
11:25 28.7 °C 6.1 °C 1019.2 hPa West 9.3 km/h 9.3 km/h 24 % 0.0 mm 671.0 W/m2 CLR
11:30 28.7 °C 5.6 °C 1019.2 hPa South 7.4 km/h 7.4 km/h 23 % 0.0 mm 682.0 W/m2 CLR
11:35 29.0 °C 5.8 °C 1019.2 hPa Calm     23 % 0.0 mm 694.0 W/m2 CLR
11:36 29.0 °C 5.8 °C 1019.2 hPa Calm     23 % 0.0 mm 696.0 W/m2 CLR
11:41 29.3 °C 5.3 °C 1018.8 hPa South 7.4 km/h   22 % 0.0 mm 708.0 W/m2 CLR
11:46 29.4 °C 5.4 °C 1018.8 hPa SW 5.6 km/h 5.6 km/h 22 % 0.0 mm 717.0 W/m2 CLR
11:51 29.6 °C 5.6 °C 1018.8 hPa West 7.4 km/h 7.4 km/h 22 % 0.0 mm 728.0 W/m2 CLR
11:56 29.7 °C 5.7 °C 1018.8 hPa NW 5.6 km/h 5.6 km/h 22 % 0.0 mm 737.0 W/m2 CLR
12:01 29.7 °C 5.7 °C 1018.8 hPa WNW 6.4 km/h 6.4 km/h 22 % 0.0 mm 744.0 W/m2 CLR
12:06 29.7 °C 5.7 °C 1018.8 hPa Calm     22 % 0.0 mm 758.0 W/m2 CLR
12:11 30.1 °C 5.4 °C 1018.5 hPa Calm     21 % 0.0 mm 765.0 W/m2 CLR
12:16 30.4 °C 5.7 °C 1018.5 hPa SSW 3.7 km/h 3.7 km/h 21 % 0.0 mm 773.0 W/m2 CLR
12:21 30.6 °C 5.8 °C 1018.5 hPa Calm     21 % 0.0 mm 777.0 W/m2 CLR
12:26 31.3 °C 6.3 °C 1018.5 hPa NNE 7.4 km/h 7.4 km/h 21 % 0.0 mm 788.0 W/m2 CLR
12:31 31.6 °C 6.6 °C 1018.5 hPa Calm     21 % 0.0 mm 796.0 W/m2 CLR
12:36 31.4 °C 5.8 °C 1018.5 hPa SW 5.6 km/h 5.6 km/h 20 % 0.0 mm 803.0 W/m2 CLR
12:41 31.5 °C 6.5 °C 1018.5 hPa ESE 1.9 km/h 1.9 km/h 21 % 0.0 mm 810.0 W/m2 CLR
12:46 31.8 °C 6.8 °C 1018.5 hPa ENE 8.0 km/h 8.0 km/h 21 % 0.0 mm 817.0 W/m2 CLR
12:51 32.0 °C 6.2 °C 1018.2 hPa Calm     20 % 0.0 mm 819.0 W/m2 CLR
12:56 32.2 °C 6.4 °C 1018.2 hPa ENE 9.3 km/h 9.3 km/h 20 % 0.0 mm 824.0 W/m2 CLR
13:01 32.6 °C 6.7 °C 1018.2 hPa East 5.6 km/h 5.6 km/h 20 % 0.0 mm 831.0 W/m2 CLR
13:06 32.7 °C 6.1 °C 1018.2 hPa East 1.9 km/h 1.9 km/h 19 % 0.0 mm 838.0 W/m2 CLR
13:11 32.7 °C 6.1 °C 1018.2 hPa East 3.7 km/h 3.7 km/h 19 % 0.0 mm 842.0 W/m2 CLR
13:16 32.5 °C 6.6 °C 1017.8 hPa ENE 11.1 km/h 11.1 km/h 20 % 0.0 mm 846.0 W/m2 CLR
13:21 32.4 °C 6.6 °C 1017.8 hPa East 5.6 km/h   20 % 0.0 mm 849.0 W/m2 CLR
13:26 32.3 °C 6.5 °C 1017.8 hPa Calm     20 % 0.0 mm 853.0 W/m2 CLR
13:31 32.3 °C 7.2 °C 1017.8 hPa Calm     21 % 0.0 mm 853.0 W/m2 CLR
13:36 32.7 °C 6.8 °C 1017.8 hPa ESE 5.6 km/h 5.6 km/h 20 % 0.0 mm 858.0 W/m2 CLR
13:41 33.1 °C 7.1 °C 1017.8 hPa ENE 5.6 km/h 5.6 km/h 20 % 0.0 mm 858.0 W/m2 CLR
13:46 32.9 °C 7.0 °C 1017.5 hPa ENE 5.6 km/h   20 % 0.0 mm 861.0 W/m2 CLR
13:51 33.1 °C 7.1 °C 1017.5 hPa Calm     20 % 0.0 mm 865.0 W/m2 CLR
13:56 33.1 °C 7.1 °C 1017.5 hPa Calm     20 % 0.0 mm 865.0 W/m2 CLR
14:01 33.4 °C 7.4 °C 1017.5 hPa Calm     20 % 0.0 mm 867.0 W/m2 CLR
14:06 33.8 °C 7.7 °C 1017.5 hPa East 5.6 km/h 5.6 km/h 20 % 0.0 mm 868.0 W/m2 CLR
14:11 33.8 °C 7.7 °C 1017.5 hPa NE 1.9 km/h   20 % 0.0 mm 867.0 W/m2 CLR
14:16 34.0 °C 7.9 °C 1017.2 hPa NNE 6.4 km/h 6.4 km/h 20 % 0.0 mm 867.0 W/m2 CLR
14:21 34.1 °C 7.9 °C 1017.2 hPa NE 9.7 km/h 9.7 km/h 20 % 0.0 mm 865.0 W/m2 CLR
14:27 34.1 °C 8.7 °C 1017.2 hPa ENE 9.7 km/h 9.7 km/h 21 % 0.0 mm 861.0 W/m2 CLR
14:32 34.4 °C 8.9 °C 1017.2 hPa Calm     21 % 0.0 mm 863.0 W/m2 CLR
14:37 34.7 °C 9.1 °C 1016.8 hPa NE 9.3 km/h 9.3 km/h 21 % 0.0 mm 858.0 W/m2 CLR
14:42 34.8 °C 8.5 °C 1016.8 hPa NE 9.3 km/h 9.3 km/h 20 % 0.0 mm 856.0 W/m2 CLR
14:47 34.6 °C 9.1 °C 1016.8 hPa East 11.3 km/h 11.3 km/h 21 % 0.0 mm 851.0 W/m2 CLR
14:52 34.4 °C 8.9 °C 1016.8 hPa NNE 7.4 km/h 7.4 km/h 21 % 0.0 mm 846.0 W/m2 CLR
14:57 34.6 °C 9.1 °C 1016.5 hPa Calm     21 % 0.0 mm 840.0 W/m2 CLR
15:02 34.8 °C 9.3 °C 1016.5 hPa Calm     21 % 0.0 mm 837.0 W/m2 CLR
15:07 35.2 °C 9.6 °C 1016.5 hPa NE 8.0 km/h 8.0 km/h 21 % 0.0 mm 831.0 W/m2 CLR
15:12 35.1 °C 9.4 °C 1016.1 hPa NE 7.4 km/h 7.4 km/h 21 % 0.0 mm 831.0 W/m2 CLR
15:17 35.2 °C 9.6 °C 1016.1 hPa NNW 5.6 km/h 5.6 km/h 21 % 0.0 mm 821.0 W/m2 CLR
15:22 35.3 °C 9.7 °C 1016.1 hPa Calm     21 % 0.0 mm 817.0 W/m2 CLR
15:27 35.5 °C 9.8 °C 1016.1 hPa Calm     21 % 0.0 mm 812.0 W/m2 CLR
15:32 36.1 °C 10.3 °C 1016.1 hPa NE 16.1 km/h 16.1 km/h 21 % 0.0 mm 802.0 W/m2 CLR
15:37 36.2 °C 10.4 °C 1016.1 hPa Calm     21 % 0.0 mm 800.0 W/m2 CLR
15:42 36.3 °C 9.8 °C 1015.8 hPa Calm   1.4 km/h 20 % 0.0 mm 795.0 W/m2 CLR
15:43 36.3 °C 9.8 °C 1015.8 hPa ENE 8.0 km/h 8.0 km/h 20 % 0.0 mm 795.0 W/m2 CLR
15:48 36.3 °C 9.8 °C 1015.8 hPa NE 1.9 km/h   20 % 0.0 mm 782.0 W/m2 CLR
15:53 36.2 °C 9.7 °C 1015.8 hPa North 5.6 km/h   20 % 0.0 mm 777.0 W/m2 CLR
15:58 36.2 °C 9.7 °C 1015.8 hPa NE 7.4 km/h 7.4 km/h 20 % 0.0 mm 765.0 W/m2 CLR
16:03 36.2 °C 10.4 °C 1015.5 hPa Calm     21 % 0.0 mm 763.0 W/m2 CLR
16:08 36.5 °C 10.7 °C 1015.5 hPa NE 5.6 km/h 5.6 km/h 21 % 0.0 mm 752.0 W/m2 CLR
16:13 36.7 °C 10.8 °C 1015.5 hPa SSE 25.9 km/h 25.9 km/h 21 % 0.0 mm 740.0 W/m2 CLR
16:18 36.4 °C 10.6 °C 1015.5 hPa SE 13.0 km/h 13.0 km/h 21 % 0.0 mm 733.0 W/m2 CLR
16:23 35.9 °C 10.9 °C 1015.5 hPa ENE 7.4 km/h 7.4 km/h 22 % 0.0 mm 721.0 W/m2 CLR
16:28 35.9 °C 10.8 °C 1015.1 hPa SE 7.4 km/h 7.4 km/h 22 % 0.0 mm 710.0 W/m2 CLR
16:33 35.9 °C 10.8 °C 1015.1 hPa SE 13.0 km/h 13.0 km/h 22 % 0.0 mm 698.0 W/m2 CLR
16:38 35.9 °C 10.9 °C 1015.1 hPa Calm     22 % 0.0 mm 687.0 W/m2 CLR
16:43 36.2 °C 11.1 °C 1015.1 hPa ENE 18.5 km/h 18.5 km/h 22 % 0.0 mm 673.0 W/m2 CLR
16:48 36.3 °C 11.2 °C 1015.1 hPa Calm     22 % 0.0 mm 664.0 W/m2 CLR
16:53 36.4 °C 11.9 °C 1015.1 hPa SE 14.8 km/h 14.8 km/h 23 % 0.0 mm 654.0 W/m2 CLR
16:58 36.0 °C 11.6 °C 1015.1 hPa East 16.7 km/h 16.7 km/h 23 % 0.0 mm 643.0 W/m2 CLR
17:03 35.7 °C 12.0 °C 1014.8 hPa NNE 3.7 km/h   24 % 0.0 mm 629.0 W/m2 CLR
17:08 35.8 °C 11.4 °C 1014.8 hPa ENE 5.6 km/h 5.6 km/h 23 % 0.0 mm 613.0 W/m2 CLR
17:13 36.0 °C 11.6 °C 1014.8 hPa ENE 11.1 km/h 11.1 km/h 23 % 0.0 mm 599.0 W/m2 CLR
17:18 35.7 °C 12.7 °C 1014.8 hPa ESE 14.8 km/h 14.8 km/h 25 % 0.0 mm 585.0 W/m2 CLR
17:23 35.7 °C 12.6 °C 1014.8 hPa ESE 18.5 km/h 18.5 km/h 25 % 0.0 mm 571.0 W/m2 CLR
17:28 35.4 °C 13.0 °C 1014.8 hPa ESE 18.5 km/h 18.5 km/h 26 % 0.0 mm 554.0 W/m2 CLR
17:33 35.4 °C 12.9 °C 1014.8 hPa East 9.3 km/h 9.3 km/h 26 % 0.0 mm 541.0 W/m2 CLR
17:38 35.4 °C 12.9 °C 1014.8 hPa ESE 14.8 km/h 14.8 km/h 26 % 0.0 mm 529.0 W/m2 CLR
17:43 35.4 °C 13.6 °C 1014.8 hPa East 7.4 km/h 7.4 km/h 27 % 0.0 mm 519.0 W/m2 CLR
17:48 35.3 °C 13.4 °C 1014.8 hPa East 9.3 km/h 9.3 km/h 27 % 0.0 mm 503.0 W/m2 CLR
17:53 35.0 °C 13.8 °C 1014.4 hPa SSE 6.4 km/h 6.4 km/h 28 % 0.0 mm 483.0 W/m2 CLR
17:58 35.0 °C 14.3 °C 1014.4 hPa East 20.4 km/h 20.4 km/h 29 % 0.0 mm 468.0 W/m2 CLR
18:03 34.9 °C 14.7 °C 1014.4 hPa ESE 18.5 km/h 18.5 km/h 30 % 0.0 mm 454.0 W/m2 CLR
18:08 34.6 °C 14.5 °C 1014.4 hPa ESE 14.5 km/h 14.5 km/h 30 % 0.0 mm 439.0 W/m2 CLR
18:13 34.7 °C 14.6 °C 1014.4 hPa ESE 13.0 km/h 13.0 km/h 30 % 0.0 mm 422.0 W/m2 CLR
18:18 34.7 °C 15.1 °C 1014.4 hPa ESE 13.0 km/h 13.0 km/h 31 % 0.0 mm 406.0 W/m2 CLR
18:23 34.7 °C 15.1 °C 1014.4 hPa ESE 14.5 km/h 14.5 km/h 31 % 0.0 mm 390.0 W/m2 CLR
18:28 34.4 °C 15.4 °C 1014.4 hPa East 16.7 km/h 16.7 km/h 32 % 0.0 mm 378.0 W/m2 CLR
18:33 34.3 °C 15.7 °C 1014.4 hPa East 16.7 km/h 16.7 km/h 33 % 0.0 mm 359.0 W/m2 CLR
18:38 34.2 °C 16.1 °C 1014.4 hPa East 16.1 km/h 16.1 km/h 34 % 0.0 mm 343.0 W/m2 CLR
18:43 34.2 °C 16.1 °C 1014.4 hPa East 14.8 km/h 14.8 km/h 34 % 0.0 mm 329.0 W/m2 CLR
18:48 34.0 °C 16.4 °C 1014.4 hPa East 11.3 km/h 11.3 km/h 35 % 0.0 mm 313.0 W/m2 CLR
18:53 33.9 °C 16.3 °C 1014.4 hPa East 16.7 km/h 16.7 km/h 35 % 0.0 mm 294.0 W/m2 CLR
18:58 33.9 °C 16.3 °C 1014.4 hPa East 18.5 km/h 18.5 km/h 35 % 0.0 mm 279.0 W/m2 CLR
19:03 33.8 °C 16.7 °C 1014.4 hPa East 11.1 km/h 11.1 km/h 36 % 0.0 mm 265.0 W/m2 CLR
19:08 33.7 °C 16.9 °C 1014.4 hPa East 11.1 km/h 11.1 km/h 37 % 0.0 mm 251.0 W/m2 CLR
19:13 33.7 °C 16.9 °C 1014.4 hPa East 16.7 km/h 16.7 km/h 37 % 0.0 mm 236.0 W/m2 CLR
19:18 33.4 °C 17.2 °C 1014.4 hPa ESE 14.8 km/h 14.8 km/h 38 % 0.0 mm 213.0 W/m2 CLR
19:23 33.4 °C 16.7 °C 1014.4 hPa SE 13.0 km/h 13.0 km/h 37 % 0.0 mm 195.0 W/m2 CLR
19:28 33.4 °C 17.1 °C 1014.4 hPa ESE 6.4 km/h 6.4 km/h 38 % 0.0 mm 179.0 W/m2 CLR
19:33 33.2 °C 17.4 °C 1014.4 hPa ENE 11.1 km/h 11.1 km/h 39 % 0.0 mm 163.0 W/m2 CLR
19:38 33.0 °C 17.2 °C 1014.4 hPa East 11.1 km/h 11.1 km/h 39 % 0.0 mm 144.0 W/m2 CLR
19:43 32.8 °C 17.4 °C 1014.4 hPa East 9.3 km/h 9.3 km/h 40 % 0.0 mm 127.0 W/m2 CLR
19:48 32.6 °C 17.6 °C 1014.4 hPa East 18.5 km/h 18.5 km/h 41 % 0.0 mm 111.0 W/m2 CLR
19:53 32.2 °C 17.7 °C 1014.4 hPa ESE 11.3 km/h 11.3 km/h 42 % 0.0 mm 98.0 W/m2 CLR
19:58 32.0 °C 17.8 °C 1014.4 hPa East 9.3 km/h 9.3 km/h 43 % 0.0 mm 84.0 W/m2 FEW
20:03 31.8 °C 18.0 °C 1014.4 hPa ESE 13.0 km/h 13.0 km/h 44 % 0.0 mm 70.0 W/m2 FEW
20:08 31.6 °C 17.9 °C 1014.4 hPa East 11.1 km/h 11.1 km/h 44 % 0.0 mm 58.0 W/m2 SCT
20:14 31.6 °C 17.8 °C 1014.4 hPa ESE 7.4 km/h 7.4 km/h 44 % 0.0 mm 44.0 W/m2 SCT
20:19 31.4 °C 17.7 °C 1014.8 hPa ESE 8.0 km/h 8.0 km/h 44 % 0.0 mm 35.0 W/m2 BKN
20:24 31.3 °C 17.6 °C 1014.8 hPa ESE 13.0 km/h 13.0 km/h 44 % 0.0 mm 28.0 W/m2 BKN
20:29 31.2 °C 17.5 °C 1014.8 hPa ESE 13.0 km/h 13.0 km/h 44 % 0.0 mm 23.0 W/m2 BKN
20:34 31.2 °C 17.4 °C 1014.8 hPa SE 13.0 km/h 13.0 km/h 44 % 0.0 mm 18.0 W/m2 BKN
20:39 31.1 °C 17.4 °C 1014.8 hPa SE 11.3 km/h 11.3 km/h 44 % 0.0 mm 12.0 W/m2 BKN
20:44 31.0 °C 17.3 °C 1014.8 hPa SSE 9.3 km/h 9.3 km/h 44 % 0.0 mm 9.0 W/m2 BKN
20:49 30.9 °C 17.2 °C 1014.8 hPa ESE 9.3 km/h 9.3 km/h 44 % 0.0 mm 5.0 W/m2 BKN
20:54 30.8 °C 17.1 °C 1014.8 hPa SSE 6.4 km/h 6.4 km/h 44 % 0.0 mm 0.0 W/m2 OVC
20:59 30.7 °C 17.4 °C 1014.8 hPa SSE 11.3 km/h 11.3 km/h 45 % 0.0 mm 0.0 W/m2 OVC
21:04 30.5 °C 17.2 °C 1014.8 hPa SE 13.0 km/h 13.0 km/h 45 % 0.0 mm 0.0 W/m2 CLR
21:09 30.4 °C 17.1 °C 1015.1 hPa SE 5.6 km/h 5.6 km/h 45 % 0.0 mm 0.0 W/m2 CLR
21:14 30.2 °C 17.3 °C 1015.1 hPa SE 11.1 km/h 11.1 km/h 46 % 0.0 mm 0.0 W/m2 CLR
21:19 30.1 °C 17.5 °C 1015.1 hPa SSE 11.1 km/h 11.1 km/h 47 % 0.0 mm 0.0 W/m2 CLR
21:24 29.8 °C 17.3 °C 1015.1 hPa SSE 11.1 km/h 11.1 km/h 47 % 0.0 mm 0.0 W/m2 CLR
21:29 29.7 °C 17.5 °C 1015.1 hPa SSE 7.4 km/h 7.4 km/h 48 % 0.0 mm 0.0 W/m2 CLR
21:34 29.5 °C 17.3 °C 1015.1 hPa SE 11.1 km/h 11.1 km/h 48 % 0.0 mm 0.0 W/m2 CLR
21:39 29.3 °C 17.5 °C 1015.1 hPa South 7.4 km/h 7.4 km/h 49 % 0.0 mm 0.0 W/m2 CLR
21:44 29.2 °C 17.4 °C 1015.1 hPa SE 9.7 km/h 9.7 km/h 49 % 0.0 mm 0.0 W/m2 CLR
21:49 29.1 °C 17.3 °C 1015.1 hPa SE 7.4 km/h 7.4 km/h 49 % 0.0 mm 0.0 W/m2 CLR
21:54 28.9 °C 17.4 °C 1015.5 hPa SSE 9.3 km/h 9.3 km/h 50 % 0.0 mm 0.0 W/m2 CLR
21:59 28.8 °C 17.3 °C 1015.5 hPa SSE 9.3 km/h 9.3 km/h 50 % 0.0 mm 0.0 W/m2 CLR
22:04 28.7 °C 17.6 °C 1015.5 hPa SE 11.3 km/h 11.3 km/h 51 % 0.0 mm 0.0 W/m2 CLR
22:09 28.6 °C 17.4 °C 1015.5 hPa SE 13.0 km/h 13.0 km/h 51 % 0.0 mm 0.0 W/m2 CLR
22:14 28.4 °C 17.3 °C 1015.5 hPa ESE 3.7 km/h 3.7 km/h 51 % 0.0 mm 0.0 W/m2 CLR
22:19 28.3 °C 17.5 °C 1015.5 hPa Calm     52 % 0.0 mm 0.0 W/m2 CLR
22:24 28.1 °C 17.3 °C 1015.5 hPa ESE 3.7 km/h 3.7 km/h 52 % 0.0 mm 0.0 W/m2 CLR
22:29 27.9 °C 17.4 °C 1015.5 hPa Calm     53 % 0.0 mm 0.0 W/m2 CLR
22:34 27.8 °C 17.3 °C 1015.5 hPa Calm     53 % 0.0 mm 0.0 W/m2 CLR
22:39 27.7 °C 17.2 °C 1015.5 hPa Calm     53 % 0.0 mm 0.0 W/m2 CLR
22:44 27.5 °C 17.1 °C 1015.5 hPa Calm     53 % 0.0 mm 0.0 W/m2 CLR
22:49 27.4 °C 17.3 °C 1015.8 hPa Calm     54 % 0.0 mm 0.0 W/m2 CLR
22:54 27.2 °C 17.1 °C 1015.8 hPa Calm     54 % 0.0 mm 0.0 W/m2 CLR
22:59 27.1 °C 17.6 °C 1015.5 hPa Calm     56 % 0.0 mm 0.0 W/m2 CLR
23:04 27.0 °C 17.5 °C 1015.8 hPa Calm     56 % 0.0 mm 0.0 W/m2 CLR
23:09 26.8 °C 17.6 °C 1015.8 hPa Calm     57 % 0.0 mm 0.0 W/m2 CLR
23:14 26.6 °C 17.4 °C 1015.8 hPa Calm     57 % 0.0 mm 0.0 W/m2 CLR
23:19 26.4 °C 17.8 °C 1015.8 hPa Calm     59 % 0.0 mm 0.0 W/m2 CLR
23:24 26.3 °C 17.9 °C 1015.8 hPa Calm     60 % 0.0 mm 0.0 W/m2 CLR
23:29 26.1 °C 17.7 °C 1015.8 hPa Calm     60 % 0.0 mm 0.0 W/m2 CLR
23:34 26.0 °C 17.9 °C 1015.8 hPa Calm     61 % 0.0 mm 0.0 W/m2 CLR
23:39 25.8 °C 17.7 °C 1015.8 hPa Calm     61 % 0.0 mm 0.0 W/m2 CLR
23:44 25.7 °C 17.8 °C 1015.8 hPa Calm     62 % 0.0 mm 0.0 W/m2 CLR
23:49 25.6 °C 18.1 °C 1015.8 hPa Calm     63 % 0.0 mm 0.0 W/m2 CLR
23:54 25.6 °C 18.0 °C 1015.8 hPa Calm     63 % 0.0 mm 0.0 W/m2 CLR
23:59 25.5 °C 17.9 °C 1015.8 hPa Calm     63 % 0.0 mm 0.0 W/m2 CLR
Lo Temps de Massalio
Compliments of Weather Underground - 1.25 mb